Cordoba, Spain
Current Conditions -  °F | °C
As of 10:00 PM on Saturday 25 Oct 2014 (Local Time) from LEBA Reporting Station
Clear Clear  
Wind Chill: 66°   Ceiling: Unl
Heat Index: 66°   Visibility: 6mi
Dew Point: 48°   Wind: 3mph
Humidity: 52%   Direction: 270°W
Pressure: 30.09"   Gusts: NA
Location:  37.89°N, 4.78°W
Report Text: LEBA 252000Z AUTO 27003KT CAVOK 19/09 Q1019
Loading
Personal Weather Stations






























Interactive Weather Map New forecast layout! Learn more

10-Day Weather Forecast

Advertisements
Track Severe Weather on mobile